createdAt,value
2023-01-06T00:02:34.204Z,6.77
2023-01-06T00:07:36.253Z,6.75
2023-01-06T00:12:36.894Z,6.85
2023-01-06T00:17:37.568Z,6.76
2023-01-06T00:22:40.505Z,6.91
2023-01-06T00:27:41.498Z,6.93
2023-01-06T00:32:42.185Z,6.89
2023-01-06T00:37:44.202Z,6.85
2023-01-06T00:42:44.879Z,6.89
2023-01-06T00:47:45.567Z,6.94
2023-01-06T00:52:48.890Z,6.91
2023-01-06T00:57:52.612Z,6.96
2023-01-06T01:02:53.415Z,6.97
2023-01-06T01:07:55.487Z,6.97
2023-01-06T01:12:56.145Z,6.98
2023-01-06T01:17:58.150Z,6.94
2023-01-06T01:23:00.140Z,6.98
2023-01-06T01:28:00.775Z,6.95
2023-01-06T01:33:01.436Z,6.98
2023-01-06T01:38:03.442Z,6.97
2023-01-06T01:43:04.130Z,6.97
2023-01-06T01:48:12.792Z,6.93
2023-01-06T01:53:19.014Z,6.94
2023-01-06T01:58:24.541Z,6.92
2023-01-06T02:03:27.393Z,6.90
2023-01-06T02:08:34.707Z,6.87
2023-01-06T02:13:40.038Z,6.85
2023-01-06T02:18:51.896Z,6.77
2023-01-06T02:24:25.012Z,6.82
2023-01-06T02:29:58.559Z,6.79
2023-01-06T02:35:13.568Z,6.73
2023-01-06T02:40:27.338Z,6.65
2023-01-06T02:45:36.647Z,6.54
2023-01-06T02:50:42.775Z,6.64
2023-01-06T02:55:47.589Z,6.64
2023-01-06T03:00:52.209Z,6.73
2023-01-06T03:06:00.418Z,6.72
2023-01-06T03:11:03.260Z,6.65
2023-01-06T03:16:06.903Z,6.71
2023-01-06T03:21:12.693Z,6.69
2023-01-06T03:26:14.194Z,6.73
2023-01-06T03:31:28.153Z,6.77
2023-01-06T03:36:40.260Z,6.72
2023-01-06T03:42:02.548Z,6.73
2023-01-06T03:47:09.004Z,6.72
2023-01-06T03:52:20.218Z,6.76
2023-01-06T03:57:25.808Z,6.78
2023-01-06T04:02:28.896Z,6.76
2023-01-06T04:07:31.821Z,6.51
2023-01-06T04:12:41.898Z,6.62
2023-01-06T04:17:48.597Z,6.54
2023-01-06T04:22:53.964Z,6.69
2023-01-06T04:27:55.228Z,6.67
2023-01-06T04:32:56.697Z,6.73
2023-01-06T04:37:58.730Z,6.68
2023-01-06T04:43:05.467Z,6.74
2023-01-06T04:48:08.525Z,6.67
2023-01-06T04:53:11.947Z,6.74
2023-01-06T04:58:12.822Z,6.86
2023-01-06T05:03:13.683Z,6.90
2023-01-06T05:08:15.663Z,6.86
2023-01-06T05:13:16.342Z,6.90
2023-01-06T05:18:16.991Z,6.99
2023-01-06T05:23:19.068Z,6.99
2023-01-06T05:28:20.185Z,7.13
2023-01-06T05:33:20.842Z,7.34
2023-01-06T05:38:22.850Z,7.15
2023-01-06T05:43:23.731Z,7.07
2023-01-06T05:48:26.036Z,6.94
2023-01-06T05:53:28.025Z,6.85
2023-01-06T05:58:28.953Z,6.76
2023-01-06T06:03:29.666Z,6.82
2023-01-06T06:08:31.746Z,6.82
2023-01-06T06:13:32.578Z,6.75
2023-01-06T06:18:33.371Z,6.84
2023-01-06T06:23:35.405Z,6.82
2023-01-06T06:28:37.378Z,6.78
2023-01-06T06:33:38.639Z,6.85
2023-01-06T06:38:40.664Z,6.88
2023-01-06T06:43:42.110Z,6.92
2023-01-06T06:48:42.891Z,7.02
2023-01-06T06:53:45.176Z,7.09
2023-01-06T06:58:46.356Z,6.99
2023-01-06T07:03:47.160Z,6.97
2023-01-06T07:08:49.952Z,6.98
2023-01-06T07:13:50.673Z,7.01
2023-01-06T07:18:51.318Z,7.08
2023-01-06T07:23:53.310Z,7.15
2023-01-06T07:28:58.392Z,7.09
2023-01-06T07:33:59.056Z,7.19
2023-01-06T07:39:01.467Z,7.18
2023-01-06T07:44:02.142Z,7.28
2023-01-06T07:49:02.856Z,7.30
2023-01-06T07:54:04.994Z,7.39
2023-01-06T07:59:05.991Z,7.34
2023-01-06T08:04:06.668Z,7.51
2023-01-06T08:09:09.131Z,7.54
2023-01-06T08:14:09.760Z,7.54
2023-01-06T08:19:10.548Z,7.56
2023-01-06T08:24:12.673Z,7.62
2023-01-06T08:29:13.650Z,7.63
2023-01-06T08:34:15.478Z,7.72
2023-01-06T08:39:17.522Z,7.88
2023-01-06T08:44:18.598Z,7.96
2023-01-06T08:49:20.438Z,8.05
2023-01-06T08:54:23.906Z,8.23
2023-01-06T08:59:24.728Z,8.60
2023-01-06T09:04:25.432Z,8.85
2023-01-06T09:09:28.778Z,9.04
2023-01-06T09:14:30.810Z,9.19
2023-01-06T09:19:31.534Z,9.13
2023-01-06T09:24:33.662Z,9.11
2023-01-06T09:29:34.498Z,9.08
2023-01-06T09:34:35.181Z,9.10
2023-01-06T09:39:37.977Z,9.15
2023-01-06T09:44:47.516Z,9.14
2023-01-06T09:49:53.042Z,9.17
2023-01-06T09:54:58.966Z,9.34
2023-01-06T10:00:02.113Z,9.55
2023-01-06T10:05:02.934Z,9.75
2023-01-06T10:10:22.234Z,9.86
2023-01-06T10:15:31.205Z,9.90
2023-01-06T10:20:53.160Z,10.06
2023-01-06T10:26:00.611Z,10.17
2023-01-06T10:31:05.798Z,10.28
2023-01-06T10:36:13.550Z,10.41
2023-01-06T10:41:23.573Z,10.39
2023-01-06T10:46:29.487Z,10.38
2023-01-06T10:51:37.852Z,10.41
2023-01-06T10:56:44.274Z,10.28
2023-01-06T11:01:54.282Z,10.44
2023-01-06T11:06:56.978Z,10.60
2023-01-06T11:12:00.948Z,10.83
2023-01-06T11:17:04.353Z,10.87
2023-01-06T11:22:06.133Z,10.93
2023-01-06T11:27:18.560Z,10.88
2023-01-06T11:32:22.706Z,11.13
2023-01-06T11:37:34.439Z,11.20
2023-01-06T11:42:36.547Z,11.40
2023-01-06T11:47:39.269Z,11.43
2023-01-06T11:52:41.145Z,11.61
2023-01-06T11:57:51.129Z,11.68
2023-01-06T12:02:56.808Z,11.66
2023-01-06T12:07:59.510Z,11.76
2023-01-06T12:13:01.680Z,11.71
2023-01-06T12:18:06.150Z,11.40
2023-01-06T12:23:12.495Z,10.88
2023-01-06T12:28:19.510Z,10.61
2023-01-06T12:33:26.099Z,10.52
2023-01-06T12:38:40.085Z,10.45
2023-01-06T12:43:50.039Z,10.48
2023-01-06T12:48:55.380Z,10.53
2023-01-06T12:54:02.989Z,10.52
2023-01-06T12:59:16.518Z,10.52
2023-01-06T13:04:41.261Z,10.66
2023-01-06T13:09:53.641Z,10.70
2023-01-06T13:15:04.778Z,10.92
2023-01-06T13:20:10.884Z,10.99
2023-01-06T13:25:42.329Z,10.99
2023-01-06T13:31:12.246Z,11.04
2023-01-06T13:36:44.700Z,11.24
2023-01-06T13:41:49.606Z,11.38
2023-01-06T13:46:54.678Z,11.47
2023-01-06T13:51:55.419Z,11.45
2023-01-06T13:57:29.278Z,11.26
2023-01-06T14:03:26.542Z,11.25
2023-01-06T14:08:35.493Z,11.25
2023-01-06T14:13:40.889Z,11.17
2023-01-06T14:18:44.238Z,11.21
2023-01-06T14:23:56.768Z,11.14
2023-01-06T14:29:36.149Z,11.16
2023-01-06T14:34:39.283Z,11.13
2023-01-06T14:39:42.831Z,11.09
2023-01-06T14:44:47.587Z,11.14
2023-01-06T14:49:57.366Z,11.09
2023-01-06T14:55:00.516Z,11.12
2023-01-06T15:00:16.269Z,11.12
2023-01-06T15:05:20.382Z,11.12
2023-01-06T15:10:22.828Z,11.11
2023-01-06T15:15:25.135Z,11.10
2023-01-06T15:20:30.519Z,11.15
2023-01-06T15:25:34.978Z,10.86
2023-01-06T15:30:36.767Z,10.71
2023-01-06T15:35:37.638Z,10.67
2023-01-06T15:40:40.718Z,10.62
2023-01-06T15:45:41.457Z,10.62
2023-01-06T15:50:42.359Z,10.71
2023-01-06T15:55:51.775Z,10.88
2023-01-06T16:00:58.403Z,10.99
2023-01-06T16:06:11.117Z,10.97
2023-01-06T16:11:41.679Z,10.85
2023-01-06T16:16:42.506Z,10.91
2023-01-06T16:21:45.250Z,10.93
2023-01-06T16:26:53.611Z,10.95
2023-01-06T16:31:54.315Z,10.95
2023-01-06T16:36:56.753Z,10.67
2023-01-06T16:42:40.455Z,10.44
2023-01-06T16:47:41.473Z,10.44
2023-01-06T16:52:42.349Z,10.54
2023-01-06T16:57:48.938Z,10.54
2023-01-06T17:02:51.185Z,10.57
2023-01-06T17:07:53.323Z,10.63
2023-01-06T17:13:15.229Z,10.63
2023-01-06T17:18:24.347Z,10.60
2023-01-06T17:23:25.058Z,10.62
2023-01-06T17:28:27.049Z,10.59
2023-01-06T17:33:29.628Z,10.62
2023-01-06T17:38:31.483Z,10.48
2023-01-06T17:43:36.245Z,10.39
2023-01-06T17:48:37.070Z,10.31
2023-01-06T17:53:55.677Z,10.32
2023-01-06T17:59:03.299Z,10.23
2023-01-06T18:04:09.096Z,10.21
2023-01-06T18:09:13.379Z,10.25
2023-01-06T18:14:27.984Z,10.24
2023-01-06T18:19:31.905Z,10.23
2023-01-06T18:24:37.365Z,10.24
2023-01-06T18:29:41.684Z,10.25
2023-01-06T18:34:44.989Z,10.25
2023-01-06T18:39:48.154Z,10.23
2023-01-06T18:44:50.955Z,10.18
2023-01-06T18:49:58.492Z,10.13
2023-01-06T18:55:00.687Z,10.15
2023-01-06T19:00:13.312Z,10.10
2023-01-06T19:05:14.738Z,10.10
2023-01-06T19:10:26.489Z,10.00
2023-01-06T19:15:28.546Z,9.90
2023-01-06T19:20:35.156Z,9.81
2023-01-06T19:25:40.851Z,9.90
2023-01-06T19:30:49.499Z,9.98
2023-01-06T19:35:51.824Z,9.87
2023-01-06T19:40:53.631Z,9.79
2023-01-06T19:45:55.804Z,9.82
2023-01-06T19:51:09.461Z,9.74
2023-01-06T19:56:17.373Z,9.65
2023-01-06T20:01:19.909Z,9.65
2023-01-06T20:06:21.567Z,9.64
2023-01-06T20:11:24.521Z,9.58
2023-01-06T20:16:26.573Z,9.51
2023-01-06T20:21:27.307Z,9.55
2023-01-06T20:26:28.032Z,9.50
2023-01-06T20:31:30.111Z,9.52
2023-01-06T20:36:30.951Z,9.45
2023-01-06T20:41:31.683Z,9.40
2023-01-06T20:46:33.705Z,9.29
2023-01-06T20:51:34.490Z,9.18
2023-01-06T20:56:35.150Z,9.15
2023-01-06T21:01:37.303Z,9.18
2023-01-06T21:06:38.039Z,9.30
2023-01-06T21:11:38.719Z,9.16
2023-01-06T21:16:40.770Z,9.03
2023-01-06T21:21:41.479Z,9.03
2023-01-06T21:26:42.179Z,9.00
2023-01-06T21:31:44.288Z,8.92
2023-01-06T21:36:45.008Z,8.90
2023-01-06T21:42:03.131Z,8.99
2023-01-06T21:47:05.424Z,9.10
2023-01-06T21:52:06.886Z,9.09
2023-01-06T21:57:07.606Z,9.13
2023-01-06T22:02:10.558Z,9.11
2023-01-06T22:07:11.675Z,9.07
2023-01-06T22:12:16.291Z,9.01
2023-01-06T22:17:19.366Z,8.96
2023-01-06T22:22:22.155Z,8.76
2023-01-06T22:27:23.855Z,8.88
2023-01-06T22:32:27.634Z,9.01
2023-01-06T22:37:28.304Z,9.12
2023-01-06T22:42:29.062Z,9.07
2023-01-06T22:47:31.140Z,9.05
2023-01-06T22:52:32.071Z,9.06
2023-01-06T22:57:32.765Z,8.93
2023-01-06T23:02:34.944Z,9.00
2023-01-06T23:07:38.124Z,9.08
2023-01-06T23:12:40.593Z,9.08
2023-01-06T23:17:42.587Z,9.08
2023-01-06T23:22:43.315Z,9.07
2023-01-06T23:27:44.103Z,8.91
2023-01-06T23:32:46.136Z,9.09
2023-01-06T23:37:46.765Z,9.00
2023-01-06T23:42:48.854Z,9.00
2023-01-06T23:47:51.080Z,8.95
2023-01-06T23:52:53.546Z,9.01
2023-01-06T23:57:55.355Z,8.85
